sensor_id;sensor_type;location;lat;lon;timestamp;P1;durP1;ratioP1;P2;durP2;ratioP2
60851;SDS011;48553;50.766;2.900;2024-01-30T00:00:26;12.77;;;7.18;;
60851;SDS011;48553;50.766;2.900;2024-01-30T00:03:27;13.73;;;7.00;;
60851;SDS011;48553;50.766;2.900;2024-01-30T00:06:29;13.65;;;7.60;;
60851;SDS011;48553;50.766;2.900;2024-01-30T00:09:30;16.15;;;7.93;;
60851;SDS011;48553;50.766;2.900;2024-01-30T00:12:30;16.98;;;7.68;;
60851;SDS011;48553;50.766;2.900;2024-01-30T00:15:31;15.98;;;7.95;;
60851;SDS011;48553;50.766;2.900;2024-01-30T00:18:32;14.25;;;7.78;;
60851;SDS011;48553;50.766;2.900;2024-01-30T00:21:33;17.95;;;7.85;;
60851;SDS011;48553;50.766;2.900;2024-01-30T00:24:33;13.75;;;7.43;;
60851;SDS011;48553;50.766;2.900;2024-01-30T00:27:33;14.15;;;7.10;;
60851;SDS011;48553;50.766;2.900;2024-01-30T00:30:34;13.82;;;7.53;;
60851;SDS011;48553;50.766;2.900;2024-01-30T00:33:34;15.88;;;7.47;;
60851;SDS011;48553;50.766;2.900;2024-01-30T00:36:35;14.77;;;7.57;;
60851;SDS011;48553;50.766;2.900;2024-01-30T00:39:35;14.55;;;7.32;;
60851;SDS011;48553;50.766;2.900;2024-01-30T00:42:36;13.32;;;6.97;;
60851;SDS011;48553;50.766;2.900;2024-01-30T00:45:36;14.30;;;7.18;;
60851;SDS011;48553;50.766;2.900;2024-01-30T00:48:36;13.18;;;6.93;;
60851;SDS011;48553;50.766;2.900;2024-01-30T00:51:37;15.60;;;6.80;;
60851;SDS011;48553;50.766;2.900;2024-01-30T00:54:37;14.35;;;6.88;;
60851;SDS011;48553;50.766;2.900;2024-01-30T00:57:38;13.68;;;6.95;;
60851;SDS011;48553;50.766;2.900;2024-01-30T01:00:38;13.63;;;6.68;;
60851;SDS011;48553;50.766;2.900;2024-01-30T01:03:40;16.02;;;7.03;;
60851;SDS011;48553;50.766;2.900;2024-01-30T01:06:43;14.70;;;6.70;;
60851;SDS011;48553;50.766;2.900;2024-01-30T01:09:44;13.10;;;7.18;;
60851;SDS011;48553;50.766;2.900;2024-01-30T01:12:44;14.00;;;6.78;;
60851;SDS011;48553;50.766;2.900;2024-01-30T01:15:45;13.00;;;6.72;;
60851;SDS011;48553;50.766;2.900;2024-01-30T01:18:46;12.57;;;6.45;;
60851;SDS011;48553;50.766;2.900;2024-01-30T01:21:46;13.50;;;6.72;;
60851;SDS011;48553;50.766;2.900;2024-01-30T01:24:47;12.48;;;6.72;;
60851;SDS011;48553;50.766;2.900;2024-01-30T01:27:47;14.63;;;6.72;;
60851;SDS011;48553;50.766;2.900;2024-01-30T01:30:51;12.45;;;6.45;;
60851;SDS011;48553;50.766;2.900;2024-01-30T01:33:52;14.13;;;6.72;;
60851;SDS011;48553;50.766;2.900;2024-01-30T01:36:53;13.05;;;6.88;;
60851;SDS011;48553;50.766;2.900;2024-01-30T01:39:55;15.90;;;6.85;;
60851;SDS011;48553;50.766;2.900;2024-01-30T01:42:55;15.88;;;7.25;;
60851;SDS011;48553;50.766;2.900;2024-01-30T01:45:56;12.20;;;6.93;;
60851;SDS011;48553;50.766;2.900;2024-01-30T01:48:56;11.55;;;7.25;;
60851;SDS011;48553;50.766;2.900;2024-01-30T01:51:57;14.77;;;7.40;;
60851;SDS011;48553;50.766;2.900;2024-01-30T01:54:58;16.73;;;7.53;;
60851;SDS011;48553;50.766;2.900;2024-01-30T01:57:59;16.85;;;8.98;;
60851;SDS011;48553;50.766;2.900;2024-01-30T02:00:59;25.30;;;9.43;;
60851;SDS011;48553;50.766;2.900;2024-01-30T02:04:00;36.35;;;11.18;;
60851;SDS011;48553;50.766;2.900;2024-01-30T02:07:01;27.35;;;9.93;;
60851;SDS011;48553;50.766;2.900;2024-01-30T02:10:01;29.48;;;9.70;;
60851;SDS011;48553;50.766;2.900;2024-01-30T02:13:03;28.98;;;10.05;;
60851;SDS011;48553;50.766;2.900;2024-01-30T02:16:04;30.60;;;10.48;;
60851;SDS011;48553;50.766;2.900;2024-01-30T02:19:05;25.15;;;9.63;;
60851;SDS011;48553;50.766;2.900;2024-01-30T02:22:07;36.65;;;11.75;;
60851;SDS011;48553;50.766;2.900;2024-01-30T02:25:09;41.50;;;12.27;;
60851;SDS011;48553;50.766;2.900;2024-01-30T02:28:12;37.83;;;11.55;;
60851;SDS011;48553;50.766;2.900;2024-01-30T02:31:12;31.35;;;10.68;;
60851;SDS011;48553;50.766;2.900;2024-01-30T02:34:13;28.27;;;10.27;;
60851;SDS011;48553;50.766;2.900;2024-01-30T02:37:14;28.20;;;9.98;;
60851;SDS011;48553;50.766;2.900;2024-01-30T02:40:14;31.02;;;10.45;;
60851;SDS011;48553;50.766;2.900;2024-01-30T02:43:15;36.67;;;11.68;;
60851;SDS011;48553;50.766;2.900;2024-01-30T02:46:16;28.45;;;11.43;;
60851;SDS011;48553;50.766;2.900;2024-01-30T02:49:16;34.83;;;12.05;;
60851;SDS011;48553;50.766;2.900;2024-01-30T02:52:17;32.55;;;11.90;;
60851;SDS011;48553;50.766;2.900;2024-01-30T02:55:17;28.70;;;11.95;;
60851;SDS011;48553;50.766;2.900;2024-01-30T02:58:18;27.50;;;11.10;;
60851;SDS011;48553;50.766;2.900;2024-01-30T03:01:18;30.23;;;11.07;;
60851;SDS011;48553;50.766;2.900;2024-01-30T03:04:19;24.05;;;10.38;;
60851;SDS011;48553;50.766;2.900;2024-01-30T03:07:19;21.75;;;9.93;;
60851;SDS011;48553;50.766;2.900;2024-01-30T03:10:20;22.55;;;9.60;;
60851;SDS011;48553;50.766;2.900;2024-01-30T03:13:21;21.50;;;9.55;;
60851;SDS011;48553;50.766;2.900;2024-01-30T03:16:23;19.20;;;9.13;;
60851;SDS011;48553;50.766;2.900;2024-01-30T03:19:23;19.85;;;9.50;;
60851;SDS011;48553;50.766;2.900;2024-01-30T03:22:24;21.35;;;9.15;;
60851;SDS011;48553;50.766;2.900;2024-01-30T03:25:24;17.00;;;8.88;;
60851;SDS011;48553;50.766;2.900;2024-01-30T03:28:25;18.92;;;8.98;;
60851;SDS011;48553;50.766;2.900;2024-01-30T03:31:26;18.35;;;9.00;;
60851;SDS011;48553;50.766;2.900;2024-01-30T03:34:26;17.00;;;9.10;;
60851;SDS011;48553;50.766;2.900;2024-01-30T03:37:27;18.77;;;9.23;;
60851;SDS011;48553;50.766;2.900;2024-01-30T03:40:27;24.25;;;11.07;;
60851;SDS011;48553;50.766;2.900;2024-01-30T03:43:28;20.35;;;10.40;;
60851;SDS011;48553;50.766;2.900;2024-01-30T03:46:28;23.02;;;11.40;;
60851;SDS011;48553;50.766;2.900;2024-01-30T03:49:28;20.45;;;10.98;;
60851;SDS011;48553;50.766;2.900;2024-01-30T03:52:29;21.80;;;10.20;;
60851;SDS011;48553;50.766;2.900;2024-01-30T03:55:29;19.30;;;9.45;;
60851;SDS011;48553;50.766;2.900;2024-01-30T03:58:30;21.15;;;9.80;;
60851;SDS011;48553;50.766;2.900;2024-01-30T04:01:30;17.60;;;9.20;;
60851;SDS011;48553;50.766;2.900;2024-01-30T04:04:31;15.13;;;8.95;;
60851;SDS011;48553;50.766;2.900;2024-01-30T04:07:31;16.38;;;8.75;;
60851;SDS011;48553;50.766;2.900;2024-01-30T04:10:32;15.85;;;8.82;;
60851;SDS011;48553;50.766;2.900;2024-01-30T04:13:32;16.85;;;8.75;;
60851;SDS011;48553;50.766;2.900;2024-01-30T04:16:33;15.70;;;8.27;;
60851;SDS011;48553;50.766;2.900;2024-01-30T04:19:36;16.80;;;8.40;;
60851;SDS011;48553;50.766;2.900;2024-01-30T04:22:37;17.60;;;8.63;;
60851;SDS011;48553;50.766;2.900;2024-01-30T04:25:37;17.02;;;8.40;;
60851;SDS011;48553;50.766;2.900;2024-01-30T04:28:38;17.65;;;8.43;;
60851;SDS011;48553;50.766;2.900;2024-01-30T04:31:38;16.58;;;8.50;;
60851;SDS011;48553;50.766;2.900;2024-01-30T04:34:39;15.88;;;8.52;;
60851;SDS011;48553;50.766;2.900;2024-01-30T04:37:39;16.08;;;8.68;;
60851;SDS011;48553;50.766;2.900;2024-01-30T04:40:40;17.60;;;8.60;;
60851;SDS011;48553;50.766;2.900;2024-01-30T04:43:40;20.90;;;8.80;;
60851;SDS011;48553;50.766;2.900;2024-01-30T04:46:41;18.05;;;8.43;;
60851;SDS011;48553;50.766;2.900;2024-01-30T04:49:41;16.17;;;8.50;;
60851;SDS011;48553;50.766;2.900;2024-01-30T04:52:42;19.05;;;8.75;;
60851;SDS011;48553;50.766;2.900;2024-01-30T04:55:42;19.02;;;8.75;;
60851;SDS011;48553;50.766;2.900;2024-01-30T04:58:43;16.83;;;8.18;;
60851;SDS011;48553;50.766;2.900;2024-01-30T05:01:43;16.85;;;8.60;;
60851;SDS011;48553;50.766;2.900;2024-01-30T05:04:44;16.67;;;8.20;;
60851;SDS011;48553;50.766;2.900;2024-01-30T05:07:44;18.00;;;8.38;;
60851;SDS011;48553;50.766;2.900;2024-01-30T05:10:44;18.17;;;8.95;;
60851;SDS011;48553;50.766;2.900;2024-01-30T05:13:45;16.55;;;8.43;;
60851;SDS011;48553;50.766;2.900;2024-01-30T05:16:46;19.50;;;8.68;;
60851;SDS011;48553;50.766;2.900;2024-01-30T05:19:47;18.15;;;8.52;;
60851;SDS011;48553;50.766;2.900;2024-01-30T05:22:47;18.40;;;9.00;;
60851;SDS011;48553;50.766;2.900;2024-01-30T05:25:48;15.93;;;8.35;;
60851;SDS011;48553;50.766;2.900;2024-01-30T05:28:48;18.50;;;8.63;;
60851;SDS011;48553;50.766;2.900;2024-01-30T05:31:49;15.70;;;8.02;;
60851;SDS011;48553;50.766;2.900;2024-01-30T05:34:49;18.30;;;8.05;;
60851;SDS011;48553;50.766;2.900;2024-01-30T05:37:50;15.00;;;7.88;;
60851;SDS011;48553;50.766;2.900;2024-01-30T05:40:51;17.50;;;8.35;;
60851;SDS011;48553;50.766;2.900;2024-01-30T05:43:51;16.23;;;7.93;;
60851;SDS011;48553;50.766;2.900;2024-01-30T05:46:51;16.05;;;8.32;;
60851;SDS011;48553;50.766;2.900;2024-01-30T05:49:52;16.10;;;8.38;;
60851;SDS011;48553;50.766;2.900;2024-01-30T05:52:52;17.75;;;8.40;;
60851;SDS011;48553;50.766;2.900;2024-01-30T05:55:53;18.38;;;8.38;;
60851;SDS011;48553;50.766;2.900;2024-01-30T05:58:53;17.73;;;8.52;;
60851;SDS011;48553;50.766;2.900;2024-01-30T06:01:54;16.02;;;8.07;;
60851;SDS011;48553;50.766;2.900;2024-01-30T06:04:54;17.08;;;8.48;;
60851;SDS011;48553;50.766;2.900;2024-01-30T06:07:55;16.30;;;8.20;;
60851;SDS011;48553;50.766;2.900;2024-01-30T06:10:55;15.85;;;8.48;;
60851;SDS011;48553;50.766;2.900;2024-01-30T06:13:55;16.75;;;8.30;;
60851;SDS011;48553;50.766;2.900;2024-01-30T06:16:56;15.77;;;7.68;;
60851;SDS011;48553;50.766;2.900;2024-01-30T06:19:56;16.23;;;7.95;;
60851;SDS011;48553;50.766;2.900;2024-01-30T06:22:57;18.23;;;8.27;;
60851;SDS011;48553;50.766;2.900;2024-01-30T06:25:57;17.90;;;8.15;;
60851;SDS011;48553;50.766;2.900;2024-01-30T06:28:57;15.27;;;7.00;;
60851;SDS011;48553;50.766;2.900;2024-01-30T06:31:58;14.60;;;8.13;;
60851;SDS011;48553;50.766;2.900;2024-01-30T06:34:58;14.40;;;7.90;;
60851;SDS011;48553;50.766;2.900;2024-01-30T06:37:59;13.70;;;7.30;;
60851;SDS011;48553;50.766;2.900;2024-01-30T06:40:59;14.82;;;7.68;;
60851;SDS011;48553;50.766;2.900;2024-01-30T06:44:01;15.77;;;7.63;;
60851;SDS011;48553;50.766;2.900;2024-01-30T06:47:03;16.80;;;7.85;;
60851;SDS011;48553;50.766;2.900;2024-01-30T06:50:03;14.05;;;7.32;;
60851;SDS011;48553;50.766;2.900;2024-01-30T06:53:04;11.82;;;6.68;;
60851;SDS011;48553;50.766;2.900;2024-01-30T06:56:05;14.68;;;7.57;;
60851;SDS011;48553;50.766;2.900;2024-01-30T06:59:05;13.00;;;7.40;;
60851;SDS011;48553;50.766;2.900;2024-01-30T07:02:06;14.57;;;7.35;;
60851;SDS011;48553;50.766;2.900;2024-01-30T07:05:07;15.70;;;7.40;;
60851;SDS011;48553;50.766;2.900;2024-01-30T07:08:09;16.77;;;7.75;;
60851;SDS011;48553;50.766;2.900;2024-01-30T07:11:10;18.35;;;7.63;;
60851;SDS011;48553;50.766;2.900;2024-01-30T07:14:12;17.67;;;7.70;;
60851;SDS011;48553;50.766;2.900;2024-01-30T07:17:12;15.70;;;7.13;;
60851;SDS011;48553;50.766;2.900;2024-01-30T07:20:13;14.77;;;6.80;;
60851;SDS011;48553;50.766;2.900;2024-01-30T07:23:13;17.25;;;6.75;;
60851;SDS011;48553;50.766;2.900;2024-01-30T07:26:16;13.75;;;6.60;;
60851;SDS011;48553;50.766;2.900;2024-01-30T07:29:17;14.27;;;6.40;;
60851;SDS011;48553;50.766;2.900;2024-01-30T07:32:17;12.95;;;5.75;;
60851;SDS011;48553;50.766;2.900;2024-01-30T07:35:18;14.25;;;5.05;;
60851;SDS011;48553;50.766;2.900;2024-01-30T07:38:19;13.63;;;4.93;;
60851;SDS011;48553;50.766;2.900;2024-01-30T07:41:20;14.82;;;4.60;;
60851;SDS011;48553;50.766;2.900;2024-01-30T07:44:20;12.50;;;4.57;;
60851;SDS011;48553;50.766;2.900;2024-01-30T07:47:21;12.32;;;4.50;;
60851;SDS011;48553;50.766;2.900;2024-01-30T07:50:21;12.50;;;3.97;;
60851;SDS011;48553;50.766;2.900;2024-01-30T07:53:22;9.75;;;3.83;;
60851;SDS011;48553;50.766;2.900;2024-01-30T07:56:22;10.65;;;3.58;;
60851;SDS011;48553;50.766;2.900;2024-01-30T07:59:22;8.63;;;3.20;;
60851;SDS011;48553;50.766;2.900;2024-01-30T08:02:24;8.40;;;3.10;;
60851;SDS011;48553;50.766;2.900;2024-01-30T08:05:25;14.35;;;3.05;;
60851;SDS011;48553;50.766;2.900;2024-01-30T08:08:25;7.32;;;2.45;;
60851;SDS011;48553;50.766;2.900;2024-01-30T08:11:27;6.45;;;2.63;;
60851;SDS011;48553;50.766;2.900;2024-01-30T08:14:29;8.68;;;2.90;;
60851;SDS011;48553;50.766;2.900;2024-01-30T08:17:29;8.73;;;2.60;;
60851;SDS011;48553;50.766;2.900;2024-01-30T08:20:30;6.97;;;1.85;;
60851;SDS011;48553;50.766;2.900;2024-01-30T08:23:30;7.95;;;1.77;;
60851;SDS011;48553;50.766;2.900;2024-01-30T08:26:31;12.85;;;1.83;;
60851;SDS011;48553;50.766;2.900;2024-01-30T08:29:32;7.00;;;1.63;;
60851;SDS011;48553;50.766;2.900;2024-01-30T08:32:33;6.60;;;1.30;;
60851;SDS011;48553;50.766;2.900;2024-01-30T08:35:33;8.88;;;1.52;;
60851;SDS011;48553;50.766;2.900;2024-01-30T08:38:34;7.03;;;1.60;;
60851;SDS011;48553;50.766;2.900;2024-01-30T08:41:34;9.80;;;1.50;;
60851;SDS011;48553;50.766;2.900;2024-01-30T08:44:34;6.78;;;1.42;;
60851;SDS011;48553;50.766;2.900;2024-01-30T08:47:35;5.15;;;1.00;;
60851;SDS011;48553;50.766;2.900;2024-01-30T08:50:35;6.93;;;1.10;;
60851;SDS011;48553;50.766;2.900;2024-01-30T08:53:36;5.15;;;0.80;;
60851;SDS011;48553;50.766;2.900;2024-01-30T08:56:36;7.03;;;1.00;;
60851;SDS011;48553;50.766;2.900;2024-01-30T08:59:37;4.28;;;1.00;;
60851;SDS011;48553;50.766;2.900;2024-01-30T09:02:37;8.80;;;1.00;;
60851;SDS011;48553;50.766;2.900;2024-01-30T09:05:37;3.92;;;0.52;;
60851;SDS011;48553;50.766;2.900;2024-01-30T09:08:38;3.72;;;0.55;;
60851;SDS011;48553;50.766;2.900;2024-01-30T09:11:39;3.47;;;0.68;;
60851;SDS011;48553;50.766;2.900;2024-01-30T09:14:39;7.88;;;0.57;;
60851;SDS011;48553;50.766;2.900;2024-01-30T09:17:41;3.40;;;0.52;;
60851;SDS011;48553;50.766;2.900;2024-01-30T09:20:41;4.63;;;0.80;;
60851;SDS011;48553;50.766;2.900;2024-01-30T09:23:41;2.83;;;0.65;;
60851;SDS011;48553;50.766;2.900;2024-01-30T09:26:42;1.95;;;0.68;;
60851;SDS011;48553;50.766;2.900;2024-01-30T09:29:42;6.80;;;0.70;;
60851;SDS011;48553;50.766;2.900;2024-01-30T09:32:43;3.53;;;0.73;;
60851;SDS011;48553;50.766;2.900;2024-01-30T09:35:43;5.75;;;0.88;;
60851;SDS011;48553;50.766;2.900;2024-01-30T09:38:44;3.67;;;0.70;;
60851;SDS011;48553;50.766;2.900;2024-01-30T09:41:45;2.25;;;0.60;;
60851;SDS011;48553;50.766;2.900;2024-01-30T09:45:07;3.88;;;0.70;;
60851;SDS011;48553;50.766;2.900;2024-01-30T09:48:09;6.40;;;0.90;;
60851;SDS011;48553;50.766;2.900;2024-01-30T09:51:10;4.85;;;0.85;;
60851;SDS011;48553;50.766;2.900;2024-01-30T09:54:12;3.95;;;0.68;;
60851;SDS011;48553;50.766;2.900;2024-01-30T09:57:15;5.50;;;0.65;;
60851;SDS011;48553;50.766;2.900;2024-01-30T10:00:15;3.25;;;0.80;;
60851;SDS011;48553;50.766;2.900;2024-01-30T10:03:16;3.88;;;0.70;;
60851;SDS011;48553;50.766;2.900;2024-01-30T10:06:18;6.85;;;0.80;;
60851;SDS011;48553;50.766;2.900;2024-01-30T10:09:20;3.13;;;0.65;;
60851;SDS011;48553;50.766;2.900;2024-01-30T10:12:22;3.95;;;0.80;;
60851;SDS011;48553;50.766;2.900;2024-01-30T10:15:23;3.95;;;0.75;;
60851;SDS011;48553;50.766;2.900;2024-01-30T10:18:25;6.95;;;0.80;;
60851;SDS011;48553;50.766;2.900;2024-01-30T10:21:26;3.70;;;0.63;;
60851;SDS011;48553;50.766;2.900;2024-01-30T10:24:26;3.90;;;0.70;;
60851;SDS011;48553;50.766;2.900;2024-01-30T10:27:28;3.42;;;0.77;;
60851;SDS011;48553;50.766;2.900;2024-01-30T10:30:29;4.22;;;0.75;;
60851;SDS011;48553;50.766;2.900;2024-01-30T10:33:30;5.35;;;1.00;;
60851;SDS011;48553;50.766;2.900;2024-01-30T10:36:30;3.20;;;0.80;;
60851;SDS011;48553;50.766;2.900;2024-01-30T10:39:41;5.57;;;0.98;;
60851;SDS011;48553;50.766;2.900;2024-01-30T10:42:43;4.38;;;0.73;;
60851;SDS011;48553;50.766;2.900;2024-01-30T10:45:45;4.15;;;0.60;;
60851;SDS011;48553;50.766;2.900;2024-01-30T10:48:59;2.97;;;0.47;;
60851;SDS011;48553;50.766;2.900;2024-01-30T10:52:00;4.15;;;0.50;;
60851;SDS011;48553;50.766;2.900;2024-01-30T10:55:02;3.97;;;0.63;;
60851;SDS011;48553;50.766;2.900;2024-01-30T10:58:05;2.13;;;0.60;;
60851;SDS011;48553;50.766;2.900;2024-01-30T11:01:07;2.30;;;0.43;;
60851;SDS011;48553;50.766;2.900;2024-01-30T11:04:09;3.78;;;0.50;;
60851;SDS011;48553;50.766;2.900;2024-01-30T11:07:16;1.80;;;0.30;;
60851;SDS011;48553;50.766;2.900;2024-01-30T11:10:17;2.80;;;0.32;;
60851;SDS011;48553;50.766;2.900;2024-01-30T11:13:18;3.28;;;0.70;;
60851;SDS011;48553;50.766;2.900;2024-01-30T11:16:19;3.35;;;0.60;;
60851;SDS011;48553;50.766;2.900;2024-01-30T11:19:27;2.50;;;0.70;;
60851;SDS011;48553;50.766;2.900;2024-01-30T11:22:30;4.55;;;0.68;;
60851;SDS011;48553;50.766;2.900;2024-01-30T11:25:31;3.33;;;0.65;;
60851;SDS011;48553;50.766;2.900;2024-01-30T11:28:32;5.97;;;0.82;;
60851;SDS011;48553;50.766;2.900;2024-01-30T11:31:36;3.08;;;0.43;;
60851;SDS011;48553;50.766;2.900;2024-01-30T11:34:39;2.90;;;0.60;;
60851;SDS011;48553;50.766;2.900;2024-01-30T11:37:41;3.75;;;0.65;;
60851;SDS011;48553;50.766;2.900;2024-01-30T11:40:43;2.60;;;0.70;;
60851;SDS011;48553;50.766;2.900;2024-01-30T11:43:51;4.57;;;0.70;;
60851;SDS011;48553;50.766;2.900;2024-01-30T11:46:52;2.88;;;0.60;;
60851;SDS011;48553;50.766;2.900;2024-01-30T11:49:52;2.17;;;0.60;;
60851;SDS011;48553;50.766;2.900;2024-01-30T11:52:54;3.05;;;0.80;;
60851;SDS011;48553;50.766;2.900;2024-01-30T11:55:54;2.63;;;0.60;;
60851;SDS011;48553;50.766;2.900;2024-01-30T11:58:55;4.93;;;0.70;;
60851;SDS011;48553;50.766;2.900;2024-01-30T12:01:55;3.38;;;0.73;;
60851;SDS011;48553;50.766;2.900;2024-01-30T12:04:56;4.30;;;0.82;;
60851;SDS011;48553;50.766;2.900;2024-01-30T12:07:56;6.45;;;0.80;;
60851;SDS011;48553;50.766;2.900;2024-01-30T12:10:59;4.55;;;0.73;;
60851;SDS011;48553;50.766;2.900;2024-01-30T12:14:05;4.55;;;0.80;;
60851;SDS011;48553;50.766;2.900;2024-01-30T12:17:05;7.57;;;1.20;;
60851;SDS011;48553;50.766;2.900;2024-01-30T12:20:09;2.72;;;0.57;;
60851;SDS011;48553;50.766;2.900;2024-01-30T12:23:13;4.72;;;0.70;;
60851;SDS011;48553;50.766;2.900;2024-01-30T12:26:14;5.55;;;0.95;;
60851;SDS011;48553;50.766;2.900;2024-01-30T12:29:15;6.15;;;0.90;;
60851;SDS011;48553;50.766;2.900;2024-01-30T12:32:16;5.22;;;0.93;;
60851;SDS011;48553;50.766;2.900;2024-01-30T12:35:17;6.10;;;1.13;;
60851;SDS011;48553;50.766;2.900;2024-01-30T12:38:19;6.88;;;0.80;;
60851;SDS011;48553;50.766;2.900;2024-01-30T12:41:19;5.13;;;0.73;;
60851;SDS011;48553;50.766;2.900;2024-01-30T12:44:20;3.67;;;0.70;;
60851;SDS011;48553;50.766;2.900;2024-01-30T12:47:23;3.88;;;0.80;;
60851;SDS011;48553;50.766;2.900;2024-01-30T12:50:24;3.80;;;0.75;;
60851;SDS011;48553;50.766;2.900;2024-01-30T12:53:24;3.47;;;0.75;;
60851;SDS011;48553;50.766;2.900;2024-01-30T12:56:25;5.90;;;0.90;;
60851;SDS011;48553;50.766;2.900;2024-01-30T12:59:25;3.35;;;0.90;;
60851;SDS011;48553;50.766;2.900;2024-01-30T13:02:26;2.67;;;0.73;;
60851;SDS011;48553;50.766;2.900;2024-01-30T13:05:30;3.97;;;0.90;;
60851;SDS011;48553;50.766;2.900;2024-01-30T13:08:31;3.13;;;0.85;;
60851;SDS011;48553;50.766;2.900;2024-01-30T13:11:31;2.42;;;0.60;;
60851;SDS011;48553;50.766;2.900;2024-01-30T13:14:32;4.18;;;0.70;;
60851;SDS011;48553;50.766;2.900;2024-01-30T13:17:32;3.10;;;0.60;;
60851;SDS011;48553;50.766;2.900;2024-01-30T13:20:33;3.38;;;0.82;;
60851;SDS011;48553;50.766;2.900;2024-01-30T13:23:33;3.85;;;0.82;;
60851;SDS011;48553;50.766;2.900;2024-01-30T13:26:34;3.85;;;0.77;;
60851;SDS011;48553;50.766;2.900;2024-01-30T13:29:34;3.70;;;0.70;;
60851;SDS011;48553;50.766;2.900;2024-01-30T13:32:35;3.00;;;0.80;;
60851;SDS011;48553;50.766;2.900;2024-01-30T13:35:35;4.45;;;0.65;;
60851;SDS011;48553;50.766;2.900;2024-01-30T13:38:36;2.97;;;1.00;;
60851;SDS011;48553;50.766;2.900;2024-01-30T13:41:37;5.20;;;1.05;;
60851;SDS011;48553;50.766;2.900;2024-01-30T13:44:38;2.60;;;1.00;;
60851;SDS011;48553;50.766;2.900;2024-01-30T13:47:39;4.35;;;1.05;;
60851;SDS011;48553;50.766;2.900;2024-01-30T13:50:39;4.72;;;0.85;;
60851;SDS011;48553;50.766;2.900;2024-01-30T13:53:40;5.00;;;1.08;;
60851;SDS011;48553;50.766;2.900;2024-01-30T13:56:40;4.68;;;1.10;;
60851;SDS011;48553;50.766;2.900;2024-01-30T13:59:41;4.43;;;1.17;;
60851;SDS011;48553;50.766;2.900;2024-01-30T14:02:42;4.93;;;1.10;;
60851;SDS011;48553;50.766;2.900;2024-01-30T14:05:42;6.63;;;1.30;;
60851;SDS011;48553;50.766;2.900;2024-01-30T14:08:44;7.13;;;1.25;;
60851;SDS011;48553;50.766;2.900;2024-01-30T14:11:44;6.28;;;1.30;;
60851;SDS011;48553;50.766;2.900;2024-01-30T14:14:45;4.97;;;1.30;;
60851;SDS011;48553;50.766;2.900;2024-01-30T14:17:45;6.30;;;1.40;;
60851;SDS011;48553;50.766;2.900;2024-01-30T14:20:48;5.15;;;1.25;;
60851;SDS011;48553;50.766;2.900;2024-01-30T14:23:48;4.85;;;1.50;;
60851;SDS011;48553;50.766;2.900;2024-01-30T14:26:49;4.95;;;1.40;;
60851;SDS011;48553;50.766;2.900;2024-01-30T14:29:50;7.03;;;1.63;;
60851;SDS011;48553;50.766;2.900;2024-01-30T14:32:50;9.07;;;2.00;;
60851;SDS011;48553;50.766;2.900;2024-01-30T14:35:51;6.07;;;1.98;;
60851;SDS011;48553;50.766;2.900;2024-01-30T14:38:51;5.32;;;1.77;;
60851;SDS011;48553;50.766;2.900;2024-01-30T14:41:52;5.65;;;1.85;;
60851;SDS011;48553;50.766;2.900;2024-01-30T14:44:52;6.47;;;1.85;;
60851;SDS011;48553;50.766;2.900;2024-01-30T14:47:53;8.70;;;1.85;;
60851;SDS011;48553;50.766;2.900;2024-01-30T14:50:55;8.52;;;2.22;;
60851;SDS011;48553;50.766;2.900;2024-01-30T14:53:56;9.50;;;2.38;;
60851;SDS011;48553;50.766;2.900;2024-01-30T14:56:56;6.97;;;2.10;;
60851;SDS011;48553;50.766;2.900;2024-01-30T14:59:59;6.00;;;1.98;;
60851;SDS011;48553;50.766;2.900;2024-01-30T15:02:59;4.22;;;1.88;;
60851;SDS011;48553;50.766;2.900;2024-01-30T15:06:00;7.97;;;2.40;;
60851;SDS011;48553;50.766;2.900;2024-01-30T15:09:01;11.55;;;2.28;;
60851;SDS011;48553;50.766;2.900;2024-01-30T15:12:01;4.85;;;2.00;;
60851;SDS011;48553;50.766;2.900;2024-01-30T15:15:02;8.93;;;2.60;;
60851;SDS011;48553;50.766;2.900;2024-01-30T15:18:03;8.68;;;2.30;;
60851;SDS011;48553;50.766;2.900;2024-01-30T15:21:04;7.32;;;2.42;;
60851;SDS011;48553;50.766;2.900;2024-01-30T15:24:04;6.93;;;2.00;;
60851;SDS011;48553;50.766;2.900;2024-01-30T15:27:05;8.38;;;2.25;;
60851;SDS011;48553;50.766;2.900;2024-01-30T15:30:06;5.45;;;1.85;;
60851;SDS011;48553;50.766;2.900;2024-01-30T15:33:07;9.80;;;2.00;;
60851;SDS011;48553;50.766;2.900;2024-01-30T15:36:09;10.05;;;2.30;;
60851;SDS011;48553;50.766;2.900;2024-01-30T15:39:13;6.53;;;2.00;;
60851;SDS011;48553;50.766;2.900;2024-01-30T15:42:15;7.45;;;2.10;;
60851;SDS011;48553;50.766;2.900;2024-01-30T15:45:15;7.38;;;2.20;;
60851;SDS011;48553;50.766;2.900;2024-01-30T15:48:17;8.60;;;2.33;;
60851;SDS011;48553;50.766;2.900;2024-01-30T15:51:18;8.05;;;2.05;;
60851;SDS011;48553;50.766;2.900;2024-01-30T15:54:19;6.65;;;2.00;;
60851;SDS011;48553;50.766;2.900;2024-01-30T15:57:20;7.90;;;2.00;;
60851;SDS011;48553;50.766;2.900;2024-01-30T16:00:21;7.18;;;2.28;;
60851;SDS011;48553;50.766;2.900;2024-01-30T16:03:21;5.95;;;2.13;;
60851;SDS011;48553;50.766;2.900;2024-01-30T16:06:22;9.50;;;2.70;;
60851;SDS011;48553;50.766;2.900;2024-01-30T16:09:25;8.48;;;2.70;;
60851;SDS011;48553;50.766;2.900;2024-01-30T16:12:26;8.00;;;2.88;;
60851;SDS011;48553;50.766;2.900;2024-01-30T16:15:26;5.28;;;2.17;;
60851;SDS011;48553;50.766;2.900;2024-01-30T16:18:26;9.80;;;2.47;;
60851;SDS011;48553;50.766;2.900;2024-01-30T16:21:31;9.65;;;2.58;;
60851;SDS011;48553;50.766;2.900;2024-01-30T16:24:31;7.07;;;2.70;;
60851;SDS011;48553;50.766;2.900;2024-01-30T16:27:31;7.78;;;2.83;;
60851;SDS011;48553;50.766;2.900;2024-01-30T16:30:32;8.00;;;2.70;;
60851;SDS011;48553;50.766;2.900;2024-01-30T16:33:32;7.65;;;2.58;;
60851;SDS011;48553;50.766;2.900;2024-01-30T16:36:33;6.78;;;2.38;;
60851;SDS011;48553;50.766;2.900;2024-01-30T16:39:33;5.75;;;2.58;;
60851;SDS011;48553;50.766;2.900;2024-01-30T16:42:33;5.60;;;2.30;;
60851;SDS011;48553;50.766;2.900;2024-01-30T16:45:34;7.03;;;2.25;;
60851;SDS011;48553;50.766;2.900;2024-01-30T16:48:34;5.18;;;2.25;;
60851;SDS011;48553;50.766;2.900;2024-01-30T16:51:35;7.97;;;2.50;;
60851;SDS011;48553;50.766;2.900;2024-01-30T16:54:35;3.95;;;2.05;;
60851;SDS011;48553;50.766;2.900;2024-01-30T16:57:36;4.82;;;1.92;;
60851;SDS011;48553;50.766;2.900;2024-01-30T17:00:36;5.47;;;1.92;;
60851;SDS011;48553;50.766;2.900;2024-01-30T17:03:37;5.63;;;1.88;;
60851;SDS011;48553;50.766;2.900;2024-01-30T17:06:37;4.32;;;1.77;;
60851;SDS011;48553;50.766;2.900;2024-01-30T17:09:38;3.95;;;1.75;;
60851;SDS011;48553;50.766;2.900;2024-01-30T17:12:39;6.03;;;2.08;;
60851;SDS011;48553;50.766;2.900;2024-01-30T17:15:39;6.43;;;1.85;;
60851;SDS011;48553;50.766;2.900;2024-01-30T17:18:39;4.72;;;2.20;;
60851;SDS011;48553;50.766;2.900;2024-01-30T17:21:40;4.15;;;2.00;;
60851;SDS011;48553;50.766;2.900;2024-01-30T17:24:40;3.75;;;2.13;;
60851;SDS011;48553;50.766;2.900;2024-01-30T17:27:41;4.85;;;2.08;;
60851;SDS011;48553;50.766;2.900;2024-01-30T17:30:41;5.88;;;2.25;;
60851;SDS011;48553;50.766;2.900;2024-01-30T17:33:41;5.90;;;2.13;;
60851;SDS011;48553;50.766;2.900;2024-01-30T17:36:42;5.45;;;2.03;;
60851;SDS011;48553;50.766;2.900;2024-01-30T17:39:42;4.85;;;1.90;;
60851;SDS011;48553;50.766;2.900;2024-01-30T17:42:43;5.45;;;2.25;;
60851;SDS011;48553;50.766;2.900;2024-01-30T17:45:43;7.43;;;2.20;;
60851;SDS011;48553;50.766;2.900;2024-01-30T17:48:44;7.00;;;2.30;;
60851;SDS011;48553;50.766;2.900;2024-01-30T17:51:44;6.07;;;2.20;;
60851;SDS011;48553;50.766;2.900;2024-01-30T17:54:46;5.90;;;2.60;;
60851;SDS011;48553;50.766;2.900;2024-01-30T17:57:46;11.43;;;2.80;;
60851;SDS011;48553;50.766;2.900;2024-01-30T18:00:46;5.93;;;2.70;;